Portland, Oregon
Current Conditions -  °F | °C
As of 1:53 PM on Sunday 23 Nov 2014 (Local Time) from KPDX Reporting Station
Moderate Rain Moderate Rain  
Wind Chill: 50°   Ceiling: 3400
Heat Index: 50°   Visibility: 2.5mi
Dew Point: 48°   Wind: 0mph
Humidity: 93%   Direction: NA
Pressure: 30.25"   Gusts: NA
Location:  45.51°N, 122.67°W
Report Text: KPDX 232153Z 00000KT 2 1/2SM R10R/5000VP6000FT RA BR SCT025 BKN034 OVC044 10/09 A3025 RMK AO2 SLP244 P0022 T01000089
Loading
Personal Weather Stations






























Interactive Weather Map New forecast layout! Learn more

10-Day Weather Forecast

Advertisements
Track Severe Weather on mobile